sensor_id;sensor_type;location;lat;lon;timestamp;P1;durP1;ratioP1;P2;durP2;ratioP2
1218;SDS011;599;51.494;6.670;2022-09-09T00:01:49;3.95;;;2.05;;
1218;SDS011;599;51.494;6.670;2022-09-09T00:04:32;2.80;;;1.27;;
1218;SDS011;599;51.494;6.670;2022-09-09T00:09:41;4.15;;;1.80;;
1218;SDS011;599;51.494;6.670;2022-09-09T00:18:22;1.50;;;1.05;;
1218;SDS011;599;51.494;6.670;2022-09-09T00:21:13;1.60;;;1.13;;
1218;SDS011;599;51.494;6.670;2022-09-09T00:24:04;7.53;;;1.70;;
1218;SDS011;599;51.494;6.670;2022-09-09T00:30:16;4.47;;;1.60;;
1218;SDS011;599;51.494;6.670;2022-09-09T00:33:10;2.47;;;1.25;;
1218;SDS011;599;51.494;6.670;2022-09-09T00:35:50;2.90;;;1.23;;
1218;SDS011;599;51.494;6.670;2022-09-09T00:41:19;1.85;;;1.00;;
1218;SDS011;599;51.494;6.670;2022-09-09T00:44:28;3.63;;;1.63;;
1218;SDS011;599;51.494;6.670;2022-09-09T00:50:22;4.25;;;1.70;;
1218;SDS011;599;51.494;6.670;2022-09-09T00:53:26;2.40;;;1.30;;
1218;SDS011;599;51.494;6.670;2022-09-09T00:56:20;2.80;;;1.60;;
1218;SDS011;599;51.494;6.670;2022-09-09T00:58:59;3.90;;;1.35;;
1218;SDS011;599;51.494;6.670;2022-09-09T01:01:53;2.42;;;1.60;;
1218;SDS011;599;51.494;6.670;2022-09-09T01:04:23;2.22;;;2.00;;
1218;SDS011;599;51.494;6.670;2022-09-09T01:07:03;3.65;;;1.95;;
1218;SDS011;599;51.494;6.670;2022-09-09T01:09:46;2.85;;;1.40;;
1218;SDS011;599;51.494;6.670;2022-09-09T01:12:24;4.53;;;1.90;;
1218;SDS011;599;51.494;6.670;2022-09-09T01:23:40;3.47;;;2.65;;
1218;SDS011;599;51.494;6.670;2022-09-09T01:26:59;5.78;;;2.20;;
1218;SDS011;599;51.494;6.670;2022-09-09T01:29:28;3.35;;;1.92;;
1218;SDS011;599;51.494;6.670;2022-09-09T01:31:58;5.28;;;2.45;;
1218;SDS011;599;51.494;6.670;2022-09-09T01:34:47;4.85;;;2.20;;
1218;SDS011;599;51.494;6.670;2022-09-09T01:37:13;4.50;;;2.30;;
1218;SDS011;599;51.494;6.670;2022-09-09T01:39:40;4.63;;;3.28;;
1218;SDS011;599;51.494;6.670;2022-09-09T01:42:11;5.25;;;3.63;;
1218;SDS011;599;51.494;6.670;2022-09-09T01:44:41;7.35;;;4.38;;
1218;SDS011;599;51.494;6.670;2022-09-09T01:47:07;6.60;;;5.10;;
1218;SDS011;599;51.494;6.670;2022-09-09T01:49:40;8.13;;;7.32;;
1218;SDS011;599;51.494;6.670;2022-09-09T01:52:15;8.38;;;7.60;;
1218;SDS011;599;51.494;6.670;2022-09-09T01:54:41;11.47;;;8.47;;
1218;SDS011;599;51.494;6.670;2022-09-09T02:00:07;10.48;;;9.45;;
1218;SDS011;599;51.494;6.670;2022-09-09T02:10:56;6.40;;;5.78;;
1218;SDS011;599;51.494;6.670;2022-09-09T02:13:41;10.50;;;6.32;;
1218;SDS011;599;51.494;6.670;2022-09-09T02:18:51;7.45;;;6.43;;
1218;SDS011;599;51.494;6.670;2022-09-09T02:21:30;8.35;;;6.00;;
1218;SDS011;599;51.494;6.670;2022-09-09T02:24:00;6.75;;;5.53;;
1218;SDS011;599;51.494;6.670;2022-09-09T02:26:34;6.55;;;5.38;;
1218;SDS011;599;51.494;6.670;2022-09-09T02:29:19;5.63;;;4.95;;
1218;SDS011;599;51.494;6.670;2022-09-09T02:31:53;5.88;;;4.80;;
1218;SDS011;599;51.494;6.670;2022-09-09T02:34:30;7.80;;;4.13;;
1218;SDS011;599;51.494;6.670;2022-09-09T02:37:01;7.20;;;4.72;;
1218;SDS011;599;51.494;6.670;2022-09-09T02:39:29;8.13;;;4.50;;
1218;SDS011;599;51.494;6.670;2022-09-09T02:41:55;5.47;;;3.73;;
1218;SDS011;599;51.494;6.670;2022-09-09T02:44:28;6.32;;;4.20;;
1218;SDS011;599;51.494;6.670;2022-09-09T02:55:17;9.30;;;2.60;;
1218;SDS011;599;51.494;6.670;2022-09-09T02:57:56;7.35;;;2.65;;
1218;SDS011;599;51.494;6.670;2022-09-09T03:00:24;3.35;;;2.38;;
1218;SDS011;599;51.494;6.670;2022-09-09T03:02:55;3.13;;;1.67;;
1218;SDS011;599;51.494;6.670;2022-09-09T03:05:21;4.97;;;2.10;;
1218;SDS011;599;51.494;6.670;2022-09-09T03:07:47;4.20;;;1.80;;
1218;SDS011;599;51.494;6.670;2022-09-09T03:10:16;3.95;;;2.45;;
1218;SDS011;599;51.494;6.670;2022-09-09T03:12:42;5.15;;;2.10;;
1218;SDS011;599;51.494;6.670;2022-09-09T03:15:09;5.57;;;1.98;;
1218;SDS011;599;51.494;6.670;2022-09-09T03:17:37;2.83;;;1.80;;
1218;SDS011;599;51.494;6.670;2022-09-09T03:20:03;3.83;;;2.17;;
1218;SDS011;599;51.494;6.670;2022-09-09T03:22:30;7.05;;;2.17;;
1218;SDS011;599;51.494;6.670;2022-09-09T03:24:58;4.20;;;2.83;;
1218;SDS011;599;51.494;6.670;2022-09-09T03:27:24;5.53;;;2.27;;
1218;SDS011;599;51.494;6.670;2022-09-09T03:29:51;4.07;;;2.22;;
1218;SDS011;599;51.494;6.670;2022-09-09T03:32:20;4.50;;;2.00;;
1218;SDS011;599;51.494;6.670;2022-09-09T03:34:48;3.30;;;2.30;;
1218;SDS011;599;51.494;6.670;2022-09-09T03:37:18;3.55;;;2.13;;
1218;SDS011;599;51.494;6.670;2022-09-09T03:39:46;5.50;;;2.58;;
1218;SDS011;599;51.494;6.670;2022-09-09T03:42:14;3.58;;;2.40;;
1218;SDS011;599;51.494;6.670;2022-09-09T03:44:47;6.50;;;2.40;;
1218;SDS011;599;51.494;6.670;2022-09-09T03:47:17;7.35;;;2.70;;
1218;SDS011;599;51.494;6.670;2022-09-09T03:49:44;6.50;;;2.47;;
1218;SDS011;599;51.494;6.670;2022-09-09T03:52:11;3.80;;;1.80;;
1218;SDS011;599;51.494;6.670;2022-09-09T03:54:37;5.25;;;2.28;;
1218;SDS011;599;51.494;6.670;2022-09-09T03:57:04;7.10;;;2.25;;
1218;SDS011;599;51.494;6.670;2022-09-09T03:59:30;10.35;;;2.63;;
1218;SDS011;599;51.494;6.670;2022-09-09T04:01:56;3.53;;;2.00;;
1218;SDS011;599;51.494;6.670;2022-09-09T04:04:24;12.93;;;2.08;;
1218;SDS011;599;51.494;6.670;2022-09-09T04:06:54;8.85;;;2.40;;
1218;SDS011;599;51.494;6.670;2022-09-09T04:09:22;6.82;;;2.40;;
1218;SDS011;599;51.494;6.670;2022-09-09T04:11:50;3.38;;;1.73;;
1218;SDS011;599;51.494;6.670;2022-09-09T04:14:16;3.88;;;2.40;;
1218;SDS011;599;51.494;6.670;2022-09-09T04:16:42;4.93;;;2.27;;
1218;SDS011;599;51.494;6.670;2022-09-09T04:19:11;6.57;;;2.08;;
1218;SDS011;599;51.494;6.670;2022-09-09T04:21:40;7.18;;;3.15;;
1218;SDS011;599;51.494;6.670;2022-09-09T04:24:07;9.48;;;2.75;;
1218;SDS011;599;51.494;6.670;2022-09-09T04:26:34;4.20;;;2.40;;
1218;SDS011;599;51.494;6.670;2022-09-09T04:29:03;4.25;;;2.20;;
1218;SDS011;599;51.494;6.670;2022-09-09T04:31:33;5.43;;;2.55;;
1218;SDS011;599;51.494;6.670;2022-09-09T04:34:00;7.82;;;2.05;;
1218;SDS011;599;51.494;6.670;2022-09-09T04:36:31;9.85;;;2.90;;
1218;SDS011;599;51.494;6.670;2022-09-09T04:39:00;4.40;;;1.88;;
1218;SDS011;599;51.494;6.670;2022-09-09T04:41:27;7.32;;;2.90;;
1218;SDS011;599;51.494;6.670;2022-09-09T04:43:53;7.93;;;3.10;;
1218;SDS011;599;51.494;6.670;2022-09-09T04:46:21;6.70;;;2.17;;
1218;SDS011;599;51.494;6.670;2022-09-09T04:48:50;6.75;;;2.10;;
1218;SDS011;599;51.494;6.670;2022-09-09T04:51:18;3.20;;;2.20;;
1218;SDS011;599;51.494;6.670;2022-09-09T04:53:46;4.10;;;2.03;;
1218;SDS011;599;51.494;6.670;2022-09-09T04:56:16;8.35;;;2.22;;
1218;SDS011;599;51.494;6.670;2022-09-09T04:58:48;9.60;;;3.20;;
1218;SDS011;599;51.494;6.670;2022-09-09T05:01:16;6.53;;;2.40;;
1218;SDS011;599;51.494;6.670;2022-09-09T05:03:45;5.18;;;2.30;;
1218;SDS011;599;51.494;6.670;2022-09-09T05:06:16;4.72;;;2.45;;
1218;SDS011;599;51.494;6.670;2022-09-09T05:08:46;4.53;;;2.42;;
1218;SDS011;599;51.494;6.670;2022-09-09T05:11:23;5.97;;;2.22;;
1218;SDS011;599;51.494;6.670;2022-09-09T05:14:06;5.70;;;2.70;;
1218;SDS011;599;51.494;6.670;2022-09-09T05:16:33;3.03;;;2.28;;
1218;SDS011;599;51.494;6.670;2022-09-09T05:18:59;6.67;;;2.53;;
1218;SDS011;599;51.494;6.670;2022-09-09T05:21:33;7.00;;;2.38;;
1218;SDS011;599;51.494;6.670;2022-09-09T05:23:59;9.10;;;2.78;;
1218;SDS011;599;51.494;6.670;2022-09-09T05:26:25;13.17;;;2.90;;
1218;SDS011;599;51.494;6.670;2022-09-09T05:28:52;7.55;;;3.47;;
1218;SDS011;599;51.494;6.670;2022-09-09T05:31:19;8.18;;;2.40;;
1218;SDS011;599;51.494;6.670;2022-09-09T05:33:49;7.28;;;2.20;;
1218;SDS011;599;51.494;6.670;2022-09-09T05:36:16;7.53;;;2.97;;
1218;SDS011;599;51.494;6.670;2022-09-09T05:38:48;7.32;;;2.50;;
1218;SDS011;599;51.494;6.670;2022-09-09T05:41:15;5.53;;;3.30;;
1218;SDS011;599;51.494;6.670;2022-09-09T05:43:43;8.02;;;3.20;;
1218;SDS011;599;51.494;6.670;2022-09-09T05:46:11;6.45;;;2.40;;
1218;SDS011;599;51.494;6.670;2022-09-09T05:48:42;5.32;;;3.00;;
1218;SDS011;599;51.494;6.670;2022-09-09T05:51:15;7.90;;;3.28;;
1218;SDS011;599;51.494;6.670;2022-09-09T05:53:48;7.93;;;2.65;;
1218;SDS011;599;51.494;6.670;2022-09-09T05:56:15;8.10;;;3.75;;
1218;SDS011;599;51.494;6.670;2022-09-09T05:58:54;13.35;;;3.72;;
1218;SDS011;599;51.494;6.670;2022-09-09T06:01:22;9.27;;;3.33;;
1218;SDS011;599;51.494;6.670;2022-09-09T06:03:51;8.95;;;3.03;;
1218;SDS011;599;51.494;6.670;2022-09-09T06:06:23;8.13;;;3.88;;
1218;SDS011;599;51.494;6.670;2022-09-09T06:08:54;9.70;;;3.13;;
1218;SDS011;599;51.494;6.670;2022-09-09T06:11:28;7.10;;;2.75;;
1218;SDS011;599;51.494;6.670;2022-09-09T06:13:59;9.27;;;3.33;;
1218;SDS011;599;51.494;6.670;2022-09-09T06:16:27;5.30;;;3.00;;
1218;SDS011;599;51.494;6.670;2022-09-09T06:18:55;6.38;;;2.50;;
1218;SDS011;599;51.494;6.670;2022-09-09T06:21:25;8.23;;;2.80;;
1218;SDS011;599;51.494;6.670;2022-09-09T06:23:56;8.38;;;2.97;;
1218;SDS011;599;51.494;6.670;2022-09-09T06:26:22;7.65;;;2.78;;
1218;SDS011;599;51.494;6.670;2022-09-09T06:28:52;6.00;;;2.90;;
1218;SDS011;599;51.494;6.670;2022-09-09T06:31:20;7.28;;;3.15;;
1218;SDS011;599;51.494;6.670;2022-09-09T06:33:53;8.30;;;2.65;;
1218;SDS011;599;51.494;6.670;2022-09-09T06:36:23;7.78;;;2.72;;
1218;SDS011;599;51.494;6.670;2022-09-09T06:38:52;5.55;;;2.97;;
1218;SDS011;599;51.494;6.670;2022-09-09T06:41:19;7.20;;;2.80;;
1218;SDS011;599;51.494;6.670;2022-09-09T06:43:48;10.20;;;3.58;;
1218;SDS011;599;51.494;6.670;2022-09-09T06:46:22;8.35;;;2.78;;
1218;SDS011;599;51.494;6.670;2022-09-09T06:48:54;5.10;;;2.88;;
1218;SDS011;599;51.494;6.670;2022-09-09T06:51:26;7.95;;;3.08;;
1218;SDS011;599;51.494;6.670;2022-09-09T06:53:55;5.18;;;2.75;;
1218;SDS011;599;51.494;6.670;2022-09-09T06:56:27;8.65;;;2.38;;
1218;SDS011;599;51.494;6.670;2022-09-09T06:59:02;11.50;;;2.78;;
1218;SDS011;599;51.494;6.670;2022-09-09T07:01:32;9.18;;;2.33;;
1218;SDS011;599;51.494;6.670;2022-09-09T07:04:04;5.97;;;2.70;;
1218;SDS011;599;51.494;6.670;2022-09-09T07:06:34;8.45;;;3.72;;
1218;SDS011;599;51.494;6.670;2022-09-09T07:09:07;8.98;;;2.35;;
1218;SDS011;599;51.494;6.670;2022-09-09T07:11:38;9.00;;;2.45;;
1218;SDS011;599;51.494;6.670;2022-09-09T07:14:07;5.57;;;1.85;;
1218;SDS011;599;51.494;6.670;2022-09-09T07:16:34;4.53;;;1.70;;
1218;SDS011;599;51.494;6.670;2022-09-09T07:19:03;6.75;;;2.45;;
1218;SDS011;599;51.494;6.670;2022-09-09T07:21:30;10.07;;;3.10;;
1218;SDS011;599;51.494;6.670;2022-09-09T07:23:57;8.85;;;2.58;;
1218;SDS011;599;51.494;6.670;2022-09-09T07:26:25;6.85;;;2.97;;
1218;SDS011;599;51.494;6.670;2022-09-09T07:28:54;5.07;;;2.38;;
1218;SDS011;599;51.494;6.670;2022-09-09T07:31:25;9.05;;;2.58;;
1218;SDS011;599;51.494;6.670;2022-09-09T07:33:56;9.90;;;2.42;;
1218;SDS011;599;51.494;6.670;2022-09-09T07:36:23;6.90;;;2.90;;
1218;SDS011;599;51.494;6.670;2022-09-09T07:38:54;8.70;;;2.40;;
1218;SDS011;599;51.494;6.670;2022-09-09T07:41:31;5.05;;;1.80;;
1218;SDS011;599;51.494;6.670;2022-09-09T07:44:10;5.28;;;1.80;;
1218;SDS011;599;51.494;6.670;2022-09-09T07:46:49;9.00;;;2.00;;
1218;SDS011;599;51.494;6.670;2022-09-09T07:49:19;6.95;;;2.75;;
1218;SDS011;599;51.494;6.670;2022-09-09T07:51:46;9.82;;;2.40;;
1218;SDS011;599;51.494;6.670;2022-09-09T07:54:14;10.77;;;2.38;;
1218;SDS011;599;51.494;6.670;2022-09-09T07:56:47;4.55;;;1.95;;
1218;SDS011;599;51.494;6.670;2022-09-09T07:59:13;5.27;;;1.87;;
1218;SDS011;599;51.494;6.670;2022-09-09T08:01:48;5.22;;;1.70;;
1218;SDS011;599;51.494;6.670;2022-09-09T08:04:22;10.35;;;2.38;;
1218;SDS011;599;51.494;6.670;2022-09-09T08:06:56;5.65;;;2.05;;
1218;SDS011;599;51.494;6.670;2022-09-09T08:09:26;3.00;;;1.50;;
1218;SDS011;599;51.494;6.670;2022-09-09T08:12:00;4.70;;;1.97;;
1218;SDS011;599;51.494;6.670;2022-09-09T08:14:27;7.10;;;1.85;;
1218;SDS011;599;51.494;6.670;2022-09-09T08:16:55;7.57;;;1.55;;
1218;SDS011;599;51.494;6.670;2022-09-09T08:19:24;6.47;;;2.00;;
1218;SDS011;599;51.494;6.670;2022-09-09T08:21:51;5.75;;;1.80;;
1218;SDS011;599;51.494;6.670;2022-09-09T08:24:17;8.27;;;2.30;;
1218;SDS011;599;51.494;6.670;2022-09-09T08:26:47;9.10;;;2.35;;
1218;SDS011;599;51.494;6.670;2022-09-09T08:29:15;6.30;;;1.73;;
1218;SDS011;599;51.494;6.670;2022-09-09T08:31:47;9.98;;;2.33;;
1218;SDS011;599;51.494;6.670;2022-09-09T08:34:16;5.60;;;2.47;;
1218;SDS011;599;51.494;6.670;2022-09-09T08:36:47;3.70;;;1.60;;
1218;SDS011;599;51.494;6.670;2022-09-09T08:39:15;4.07;;;1.45;;
1218;SDS011;599;51.494;6.670;2022-09-09T08:53:27;8.03;;;1.73;;
1218;SDS011;599;51.494;6.670;2022-09-09T08:56:08;5.70;;;1.80;;
1218;SDS011;599;51.494;6.670;2022-09-09T08:58:49;8.33;;;2.23;;
1218;SDS011;599;51.494;6.670;2022-09-09T09:07:32;4.38;;;2.22;;
1218;SDS011;599;51.494;6.670;2022-09-09T09:10:28;7.63;;;2.27;;
1218;SDS011;599;51.494;6.670;2022-09-09T09:13:07;7.32;;;1.80;;
1218;SDS011;599;51.494;6.670;2022-09-09T09:15:46;7.00;;;2.60;;
1218;SDS011;599;51.494;6.670;2022-09-09T09:18:19;5.00;;;1.60;;
1218;SDS011;599;51.494;6.670;2022-09-09T09:20:50;4.22;;;1.90;;
1218;SDS011;599;51.494;6.670;2022-09-09T09:23:46;6.67;;;2.30;;
1218;SDS011;599;51.494;6.670;2022-09-09T09:26:30;6.30;;;1.90;;
1218;SDS011;599;51.494;6.670;2022-09-09T09:29:01;3.77;;;1.57;;
1218;SDS011;599;51.494;6.670;2022-09-09T09:31:37;5.80;;;1.30;;
1218;SDS011;599;51.494;6.670;2022-09-09T09:34:03;7.43;;;1.70;;
1218;SDS011;599;51.494;6.670;2022-09-09T09:36:34;3.87;;;1.90;;
1218;SDS011;599;51.494;6.670;2022-09-09T09:39:08;5.27;;;1.93;;
1218;SDS011;599;51.494;6.670;2022-09-09T09:41:36;3.53;;;1.60;;
1218;SDS011;599;51.494;6.670;2022-09-09T09:44:22;6.47;;;1.70;;
1218;SDS011;599;51.494;6.670;2022-09-09T09:46:53;5.10;;;1.42;;
1218;SDS011;599;51.494;6.670;2022-09-09T09:49:54;7.07;;;1.67;;
1218;SDS011;599;51.494;6.670;2022-09-09T09:52:28;5.43;;;1.17;;
1218;SDS011;599;51.494;6.670;2022-09-09T09:54:58;8.77;;;1.83;;
1218;SDS011;599;51.494;6.670;2022-09-09T09:57:31;7.70;;;1.57;;
1218;SDS011;599;51.494;6.670;2022-09-09T10:00:18;4.90;;;2.13;;
1218;SDS011;599;51.494;6.670;2022-09-09T10:02:59;6.23;;;1.70;;
1218;SDS011;599;51.494;6.670;2022-09-09T10:05:28;8.67;;;2.20;;
1218;SDS011;599;51.494;6.670;2022-09-09T10:08:03;4.67;;;2.23;;
1218;SDS011;599;51.494;6.670;2022-09-09T10:17:42;5.13;;;1.53;;
1218;SDS011;599;51.494;6.670;2022-09-09T10:26:02;6.27;;;1.43;;
1218;SDS011;599;51.494;6.670;2022-09-09T10:28:51;6.63;;;1.20;;
1218;SDS011;599;51.494;6.670;2022-09-09T10:40:26;9.53;;;1.83;;
1218;SDS011;599;51.494;6.670;2022-09-09T10:42:56;4.90;;;1.30;;
1218;SDS011;599;51.494;6.670;2022-09-09T10:57:12;4.30;;;1.60;;
1218;SDS011;599;51.494;6.670;2022-09-09T10:59:46;6.87;;;1.90;;
1218;SDS011;599;51.494;6.670;2022-09-09T11:02:17;5.00;;;1.53;;
1218;SDS011;599;51.494;6.670;2022-09-09T11:04:56;8.13;;;1.90;;
1218;SDS011;599;51.494;6.670;2022-09-09T11:08:10;3.23;;;1.43;;
1218;SDS011;599;51.494;6.670;2022-09-09T11:16:52;5.07;;;1.73;;
1218;SDS011;599;51.494;6.670;2022-09-09T11:19:19;6.33;;;1.70;;
1218;SDS011;599;51.494;6.670;2022-09-09T11:21:57;5.37;;;1.03;;
1218;SDS011;599;51.494;6.670;2022-09-09T11:24:27;3.70;;;1.47;;
1218;SDS011;599;51.494;6.670;2022-09-09T11:27:29;5.70;;;1.53;;
1218;SDS011;599;51.494;6.670;2022-09-09T11:30:29;4.47;;;1.43;;
1218;SDS011;599;51.494;6.670;2022-09-09T11:33:26;4.07;;;1.60;;
1218;SDS011;599;51.494;6.670;2022-09-09T11:39:26;6.40;;;1.60;;
1218;SDS011;599;51.494;6.670;2022-09-09T11:44:39;3.80;;;1.20;;
1218;SDS011;599;51.494;6.670;2022-09-09T11:47:21;3.17;;;1.43;;
1218;SDS011;599;51.494;6.670;2022-09-09T11:52:43;2.70;;;1.00;;
1218;SDS011;599;51.494;6.670;2022-09-09T11:55:33;3.63;;;1.10;;
1218;SDS011;599;51.494;6.670;2022-09-09T11:58:00;3.20;;;1.03;;
1218;SDS011;599;51.494;6.670;2022-09-09T12:09:06;2.90;;;0.73;;
1218;SDS011;599;51.494;6.670;2022-09-09T12:12:04;7.63;;;1.77;;
1218;SDS011;599;51.494;6.670;2022-09-09T12:14:38;3.20;;;0.93;;
1218;SDS011;599;51.494;6.670;2022-09-09T12:19:40;1.80;;;0.93;;
1218;SDS011;599;51.494;6.670;2022-09-09T12:22:23;10.43;;;1.50;;
1218;SDS011;599;51.494;6.670;2022-09-09T12:28:49;3.43;;;1.20;;
1218;SDS011;599;51.494;6.670;2022-09-09T12:34:40;5.80;;;1.30;;
1218;SDS011;599;51.494;6.670;2022-09-09T12:39:57;3.00;;;1.10;;
1218;SDS011;599;51.494;6.670;2022-09-09T12:42:27;4.20;;;1.30;;
1218;SDS011;599;51.494;6.670;2022-09-09T12:44:57;2.33;;;0.90;;
1218;SDS011;599;51.494;6.670;2022-09-09T12:52:47;2.17;;;1.27;;
1218;SDS011;599;51.494;6.670;2022-09-09T12:55:19;3.13;;;1.20;;
1218;SDS011;599;51.494;6.670;2022-09-09T12:57:50;3.30;;;0.97;;
1218;SDS011;599;51.494;6.670;2022-09-09T13:00:23;4.53;;;1.90;;
1218;SDS011;599;51.494;6.670;2022-09-09T13:03:17;4.50;;;1.37;;
1218;SDS011;599;51.494;6.670;2022-09-09T13:05:49;5.17;;;1.40;;
1218;SDS011;599;51.494;6.670;2022-09-09T13:08:16;8.40;;;1.83;;
1218;SDS011;599;51.494;6.670;2022-09-09T13:10:47;7.27;;;1.50;;
1218;SDS011;599;51.494;6.670;2022-09-09T13:16:05;5.10;;;1.47;;
1218;SDS011;599;51.494;6.670;2022-09-09T13:18:48;3.70;;;1.37;;
1218;SDS011;599;51.494;6.670;2022-09-09T13:21:14;4.87;;;1.33;;
1218;SDS011;599;51.494;6.670;2022-09-09T13:23:40;3.97;;;1.10;;
1218;SDS011;599;51.494;6.670;2022-09-09T13:26:19;3.90;;;1.30;;
1218;SDS011;599;51.494;6.670;2022-09-09T13:28:53;5.60;;;1.63;;
1218;SDS011;599;51.494;6.670;2022-09-09T13:31:21;2.57;;;1.30;;
1218;SDS011;599;51.494;6.670;2022-09-09T13:33:48;5.37;;;2.00;;
1218;SDS011;599;51.494;6.670;2022-09-09T13:36:15;5.10;;;1.60;;
1218;SDS011;599;51.494;6.670;2022-09-09T13:38:53;2.63;;;1.50;;
1218;SDS011;599;51.494;6.670;2022-09-09T13:41:22;4.43;;;1.10;;
1218;SDS011;599;51.494;6.670;2022-09-09T13:44:00;4.00;;;1.63;;
1218;SDS011;599;51.494;6.670;2022-09-09T13:51:49;3.80;;;1.37;;
1218;SDS011;599;51.494;6.670;2022-09-09T13:54:18;4.13;;;1.70;;
1218;SDS011;599;51.494;6.670;2022-09-09T13:56:46;3.40;;;1.23;;
1218;SDS011;599;51.494;6.670;2022-09-09T13:59:16;4.30;;;1.10;;
1218;SDS011;599;51.494;6.670;2022-09-09T14:01:47;3.60;;;1.30;;
1218;SDS011;599;51.494;6.670;2022-09-09T14:04:17;5.50;;;1.40;;
1218;SDS011;599;51.494;6.670;2022-09-09T14:06:46;3.77;;;1.90;;
1218;SDS011;599;51.494;6.670;2022-09-09T14:09:14;11.73;;;2.10;;
1218;SDS011;599;51.494;6.670;2022-09-09T14:11:44;8.07;;;1.87;;
1218;SDS011;599;51.494;6.670;2022-09-09T14:14:11;3.47;;;1.23;;
1218;SDS011;599;51.494;6.670;2022-09-09T14:16:37;4.60;;;1.30;;
1218;SDS011;599;51.494;6.670;2022-09-09T14:19:04;4.63;;;1.77;;
1218;SDS011;599;51.494;6.670;2022-09-09T14:21:42;5.33;;;1.50;;
1218;SDS011;599;51.494;6.670;2022-09-09T14:24:08;5.33;;;1.60;;
1218;SDS011;599;51.494;6.670;2022-09-09T14:26:35;4.90;;;1.70;;
1218;SDS011;599;51.494;6.670;2022-09-09T14:29:02;4.33;;;1.67;;
1218;SDS011;599;51.494;6.670;2022-09-09T14:31:30;6.87;;;1.20;;
1218;SDS011;599;51.494;6.670;2022-09-09T14:33:56;4.13;;;1.67;;
1218;SDS011;599;51.494;6.670;2022-09-09T14:36:22;10.27;;;3.10;;
1218;SDS011;599;51.494;6.670;2022-09-09T14:38:49;4.68;;;1.60;;
1218;SDS011;599;51.494;6.670;2022-09-09T14:41:16;7.95;;;2.20;;
1218;SDS011;599;51.494;6.670;2022-09-09T14:43:44;2.55;;;1.52;;
1218;SDS011;599;51.494;6.670;2022-09-09T14:46:12;6.90;;;2.20;;
1218;SDS011;599;51.494;6.670;2022-09-09T14:48:41;2.60;;;1.20;;
1218;SDS011;599;51.494;6.670;2022-09-09T14:51:09;4.35;;;1.77;;
1218;SDS011;599;51.494;6.670;2022-09-09T14:53:41;3.58;;;1.35;;
1218;SDS011;599;51.494;6.670;2022-09-09T14:56:15;2.53;;;1.38;;
1218;SDS011;599;51.494;6.670;2022-09-09T14:58:47;3.80;;;1.63;;
1218;SDS011;599;51.494;6.670;2022-09-09T15:01:14;3.22;;;1.30;;
1218;SDS011;599;51.494;6.670;2022-09-09T15:03:43;3.25;;;1.45;;
1218;SDS011;599;51.494;6.670;2022-09-09T15:06:17;2.00;;;1.35;;
1218;SDS011;599;51.494;6.670;2022-09-09T15:08:44;2.85;;;1.55;;
1218;SDS011;599;51.494;6.670;2022-09-09T15:11:12;4.40;;;1.30;;
1218;SDS011;599;51.494;6.670;2022-09-09T15:13:39;3.30;;;1.80;;
1218;SDS011;599;51.494;6.670;2022-09-09T15:16:09;10.85;;;2.03;;
1218;SDS011;599;51.494;6.670;2022-09-09T15:18:40;1.67;;;1.15;;
1218;SDS011;599;51.494;6.670;2022-09-09T15:21:11;4.80;;;1.50;;
1218;SDS011;599;51.494;6.670;2022-09-09T15:23:42;4.18;;;1.80;;
1218;SDS011;599;51.494;6.670;2022-09-09T15:26:09;6.45;;;1.40;;
1218;SDS011;599;51.494;6.670;2022-09-09T15:28:36;6.38;;;1.63;;
1218;SDS011;599;51.494;6.670;2022-09-09T15:31:07;3.38;;;1.33;;
1218;SDS011;599;51.494;6.670;2022-09-09T15:33:48;2.30;;;1.30;;
1218;SDS011;599;51.494;6.670;2022-09-09T15:36:19;2.25;;;1.40;;
1218;SDS011;599;51.494;6.670;2022-09-09T15:38:50;3.05;;;1.30;;
1218;SDS011;599;51.494;6.670;2022-09-09T15:41:18;3.92;;;1.45;;
1218;SDS011;599;51.494;6.670;2022-09-09T15:43:46;5.37;;;1.67;;
1218;SDS011;599;51.494;6.670;2022-09-09T15:51:51;2.90;;;1.30;;
1218;SDS011;599;51.494;6.670;2022-09-09T15:54:24;2.88;;;1.23;;
1218;SDS011;599;51.494;6.670;2022-09-09T15:56:55;2.72;;;1.77;;
1218;SDS011;599;51.494;6.670;2022-09-09T15:59:24;8.43;;;2.00;;
1218;SDS011;599;51.494;6.670;2022-09-09T16:01:55;3.73;;;1.60;;
1218;SDS011;599;51.494;6.670;2022-09-09T16:04:22;2.97;;;1.33;;
1218;SDS011;599;51.494;6.670;2022-09-09T16:06:56;2.70;;;1.70;;
1218;SDS011;599;51.494;6.670;2022-09-09T16:09:32;2.50;;;1.10;;
1218;SDS011;599;51.494;6.670;2022-09-09T16:12:00;8.53;;;1.97;;
1218;SDS011;599;51.494;6.670;2022-09-09T16:14:31;5.20;;;1.77;;
1218;SDS011;599;51.494;6.670;2022-09-09T16:17:01;6.05;;;2.05;;
1218;SDS011;599;51.494;6.670;2022-09-09T16:19:28;3.00;;;1.83;;
1218;SDS011;599;51.494;6.670;2022-09-09T16:21:54;4.50;;;1.70;;
1218;SDS011;599;51.494;6.670;2022-09-09T16:24:20;2.50;;;1.60;;
1218;SDS011;599;51.494;6.670;2022-09-09T16:26:47;3.00;;;1.20;;
1218;SDS011;599;51.494;6.670;2022-09-09T16:29:15;3.65;;;1.50;;
1218;SDS011;599;51.494;6.670;2022-09-09T16:31:43;3.83;;;1.60;;
1218;SDS011;599;51.494;6.670;2022-09-09T16:34:10;3.67;;;1.40;;
1218;SDS011;599;51.494;6.670;2022-09-09T16:36:38;3.00;;;1.57;;
1218;SDS011;599;51.494;6.670;2022-09-09T16:39:06;4.40;;;1.80;;
1218;SDS011;599;51.494;6.670;2022-09-09T16:41:38;3.35;;;1.30;;
1218;SDS011;599;51.494;6.670;2022-09-09T16:44:07;2.28;;;1.10;;
1218;SDS011;599;51.494;6.670;2022-09-09T16:46:35;4.93;;;1.85;;
1218;SDS011;599;51.494;6.670;2022-09-09T16:49:11;3.00;;;2.30;;
1218;SDS011;599;51.494;6.670;2022-09-09T16:51:42;3.15;;;1.80;;
1218;SDS011;599;51.494;6.670;2022-09-09T16:54:14;3.03;;;1.80;;
1218;SDS011;599;51.494;6.670;2022-09-09T16:56:42;4.30;;;2.65;;
1218;SDS011;599;51.494;6.670;2022-09-09T16:59:12;8.00;;;2.78;;
1218;SDS011;599;51.494;6.670;2022-09-09T17:01:45;4.78;;;2.20;;
1218;SDS011;599;51.494;6.670;2022-09-09T17:04:18;8.07;;;2.55;;
1218;SDS011;599;51.494;6.670;2022-09-09T17:06:49;5.88;;;2.95;;
1218;SDS011;599;51.494;6.670;2022-09-09T17:09:17;4.72;;;2.85;;
1218;SDS011;599;51.494;6.670;2022-09-09T17:11:45;7.35;;;3.05;;
1218;SDS011;599;51.494;6.670;2022-09-09T17:14:14;8.65;;;2.58;;
1218;SDS011;599;51.494;6.670;2022-09-09T17:16:43;4.57;;;2.40;;
1218;SDS011;599;51.494;6.670;2022-09-09T17:19:09;5.10;;;2.05;;
1218;SDS011;599;51.494;6.670;2022-09-09T17:21:36;4.35;;;2.50;;
1218;SDS011;599;51.494;6.670;2022-09-09T17:24:03;2.90;;;2.30;;
1218;SDS011;599;51.494;6.670;2022-09-09T17:26:30;4.22;;;2.83;;
1218;SDS011;599;51.494;6.670;2022-09-09T17:28:58;5.55;;;2.10;;
1218;SDS011;599;51.494;6.670;2022-09-09T17:31:26;5.90;;;2.15;;
1218;SDS011;599;51.494;6.670;2022-09-09T17:33:53;5.18;;;2.50;;
1218;SDS011;599;51.494;6.670;2022-09-09T17:36:21;6.03;;;2.85;;
1218;SDS011;599;51.494;6.670;2022-09-09T17:38:53;6.82;;;2.20;;
1218;SDS011;599;51.494;6.670;2022-09-09T17:41:21;4.53;;;2.03;;
1218;SDS011;599;51.494;6.670;2022-09-09T17:43:50;10.85;;;2.70;;
1218;SDS011;599;51.494;6.670;2022-09-09T17:46:18;6.07;;;2.50;;
1218;SDS011;599;51.494;6.670;2022-09-09T17:48:47;8.32;;;2.42;;
1218;SDS011;599;51.494;6.670;2022-09-09T17:51:20;5.43;;;2.50;;
1218;SDS011;599;51.494;6.670;2022-09-09T17:53:52;3.88;;;2.33;;
1218;SDS011;599;51.494;6.670;2022-09-09T17:56:20;3.67;;;2.10;;
1218;SDS011;599;51.494;6.670;2022-09-09T17:58:51;8.60;;;2.60;;
1218;SDS011;599;51.494;6.670;2022-09-09T18:01:19;6.55;;;3.17;;
1218;SDS011;599;51.494;6.670;2022-09-09T18:03:48;6.93;;;2.47;;
1218;SDS011;599;51.494;6.670;2022-09-09T18:06:16;9.25;;;3.03;;
1218;SDS011;599;51.494;6.670;2022-09-09T18:08:49;6.95;;;2.47;;
1218;SDS011;599;51.494;6.670;2022-09-09T18:11:21;3.20;;;2.50;;
1218;SDS011;599;51.494;6.670;2022-09-09T18:13:51;7.05;;;2.65;;
1218;SDS011;599;51.494;6.670;2022-09-09T18:16:24;4.07;;;3.03;;
1218;SDS011;599;51.494;6.670;2022-09-09T18:18:53;5.07;;;3.40;;
1218;SDS011;599;51.494;6.670;2022-09-09T18:21:22;5.60;;;3.70;;
1218;SDS011;599;51.494;6.670;2022-09-09T18:23:50;4.25;;;3.10;;
1218;SDS011;599;51.494;6.670;2022-09-09T18:26:18;6.50;;;2.78;;
1218;SDS011;599;51.494;6.670;2022-09-09T18:28:57;4.50;;;3.30;;
1218;SDS011;599;51.494;6.670;2022-09-09T18:31:26;7.25;;;3.60;;
1218;SDS011;599;51.494;6.670;2022-09-09T18:33:54;8.02;;;3.28;;
1218;SDS011;599;51.494;6.670;2022-09-09T18:36:24;4.57;;;2.95;;